sensor_id;sensor_type;location;lat;lon;timestamp;P1;durP1;ratioP1;P2;durP2;ratioP2
18931;SDS011;9598;50.954;3.112;2023-02-28T00:03:35;5.13;;;4.63;;
18931;SDS011;9598;50.954;3.112;2023-02-28T00:08:39;5.43;;;4.57;;
18931;SDS011;9598;50.954;3.112;2023-02-28T00:13:42;6.05;;;4.97;;
18931;SDS011;9598;50.954;3.112;2023-02-28T00:18:46;5.65;;;5.07;;
18931;SDS011;9598;50.954;3.112;2023-02-28T00:23:50;7.03;;;5.28;;
18931;SDS011;9598;50.954;3.112;2023-02-28T00:28:52;7.68;;;6.28;;
18931;SDS011;9598;50.954;3.112;2023-02-28T00:33:56;6.38;;;5.80;;
18931;SDS011;9598;50.954;3.112;2023-02-28T00:39:00;6.10;;;5.50;;
18931;SDS011;9598;50.954;3.112;2023-02-28T00:44:02;5.72;;;5.15;;
18931;SDS011;9598;50.954;3.112;2023-02-28T00:49:06;6.50;;;5.90;;
18931;SDS011;9598;50.954;3.112;2023-02-28T00:54:11;8.52;;;6.00;;
18931;SDS011;9598;50.954;3.112;2023-02-28T00:59:13;7.03;;;5.35;;
18931;SDS011;9598;50.954;3.112;2023-02-28T01:04:16;6.53;;;5.28;;
18931;SDS011;9598;50.954;3.112;2023-02-28T01:09:19;5.80;;;5.30;;
18931;SDS011;9598;50.954;3.112;2023-02-28T01:14:21;6.47;;;5.88;;
18931;SDS011;9598;50.954;3.112;2023-02-28T01:19:24;7.25;;;5.95;;
18931;SDS011;9598;50.954;3.112;2023-02-28T01:24:28;6.90;;;5.30;;
18931;SDS011;9598;50.954;3.112;2023-02-28T01:29:30;8.13;;;5.75;;
18931;SDS011;9598;50.954;3.112;2023-02-28T01:34:32;6.15;;;5.55;;
18931;SDS011;9598;50.954;3.112;2023-02-28T01:39:35;7.15;;;6.38;;
18931;SDS011;9598;50.954;3.112;2023-02-28T01:50:00;6.60;;;5.88;;
18931;SDS011;9598;50.954;3.112;2023-02-28T01:55:08;8.30;;;6.38;;
18931;SDS011;9598;50.954;3.112;2023-02-28T02:00:14;8.10;;;6.10;;
18931;SDS011;9598;50.954;3.112;2023-02-28T02:05:22;6.68;;;5.75;;
18931;SDS011;9598;50.954;3.112;2023-02-28T02:10:29;6.75;;;6.05;;
18931;SDS011;9598;50.954;3.112;2023-02-28T02:15:34;7.40;;;6.20;;
18931;SDS011;9598;50.954;3.112;2023-02-28T02:37:49;8.02;;;6.60;;
18931;SDS011;9598;50.954;3.112;2023-02-28T02:42:59;8.30;;;7.50;;
18931;SDS011;9598;50.954;3.112;2023-02-28T02:48:06;8.05;;;6.78;;
18931;SDS011;9598;50.954;3.112;2023-02-28T02:53:13;8.65;;;6.93;;
18931;SDS011;9598;50.954;3.112;2023-02-28T02:58:19;9.00;;;6.88;;
18931;SDS011;9598;50.954;3.112;2023-02-28T03:03:26;7.30;;;6.60;;
18931;SDS011;9598;50.954;3.112;2023-02-28T03:08:34;7.72;;;7.00;;
18931;SDS011;9598;50.954;3.112;2023-02-28T03:13:48;8.07;;;7.10;;
18931;SDS011;9598;50.954;3.112;2023-02-28T03:19:04;7.75;;;7.05;;
18931;SDS011;9598;50.954;3.112;2023-02-28T03:24:25;7.72;;;7.03;;
18931;SDS011;9598;50.954;3.112;2023-02-28T03:29:34;9.55;;;7.80;;
18931;SDS011;9598;50.954;3.112;2023-02-28T03:34:39;8.18;;;7.43;;
18931;SDS011;9598;50.954;3.112;2023-02-28T03:39:46;8.60;;;7.53;;
18931;SDS011;9598;50.954;3.112;2023-02-28T03:44:52;9.77;;;8.77;;
18931;SDS011;9598;50.954;3.112;2023-02-28T03:49:58;8.20;;;7.50;;
18931;SDS011;9598;50.954;3.112;2023-02-28T03:55:06;9.45;;;8.55;;
18931;SDS011;9598;50.954;3.112;2023-02-28T04:00:14;9.38;;;8.30;;
18931;SDS011;9598;50.954;3.112;2023-02-28T04:05:21;8.65;;;7.80;;
18931;SDS011;9598;50.954;3.112;2023-02-28T04:10:25;9.90;;;8.52;;
18931;SDS011;9598;50.954;3.112;2023-02-28T04:15:28;11.20;;;9.38;;
18931;SDS011;9598;50.954;3.112;2023-02-28T04:20:30;10.02;;;8.73;;
18931;SDS011;9598;50.954;3.112;2023-02-28T04:25:33;9.77;;;8.77;;
18931;SDS011;9598;50.954;3.112;2023-02-28T04:30:35;10.25;;;9.25;;
18931;SDS011;9598;50.954;3.112;2023-02-28T04:35:39;10.02;;;8.45;;
18931;SDS011;9598;50.954;3.112;2023-02-28T04:40:43;11.13;;;9.30;;
18931;SDS011;9598;50.954;3.112;2023-02-28T04:45:45;15.30;;;9.48;;
18931;SDS011;9598;50.954;3.112;2023-02-28T04:50:47;10.93;;;9.85;;
18931;SDS011;9598;50.954;3.112;2023-02-28T04:55:50;10.00;;;8.93;;
18931;SDS011;9598;50.954;3.112;2023-02-28T05:00:53;16.70;;;10.55;;
18931;SDS011;9598;50.954;3.112;2023-02-28T05:05:55;18.02;;;15.85;;
18931;SDS011;9598;50.954;3.112;2023-02-28T05:10:59;13.05;;;10.57;;
18931;SDS011;9598;50.954;3.112;2023-02-28T05:16:01;11.88;;;10.68;;
18931;SDS011;9598;50.954;3.112;2023-02-28T05:21:04;10.48;;;8.98;;
18931;SDS011;9598;50.954;3.112;2023-02-28T05:26:07;13.02;;;9.77;;
18931;SDS011;9598;50.954;3.112;2023-02-28T05:31:10;12.30;;;10.55;;
18931;SDS011;9598;50.954;3.112;2023-02-28T05:36:12;10.43;;;9.23;;
18931;SDS011;9598;50.954;3.112;2023-02-28T05:41:17;9.90;;;8.90;;
18931;SDS011;9598;50.954;3.112;2023-02-28T05:46:20;11.55;;;10.02;;
18931;SDS011;9598;50.954;3.112;2023-02-28T05:51:22;11.73;;;9.85;;
18931;SDS011;9598;50.954;3.112;2023-02-28T05:56:26;11.13;;;10.07;;
18931;SDS011;9598;50.954;3.112;2023-02-28T06:01:32;11.13;;;9.93;;
18931;SDS011;9598;50.954;3.112;2023-02-28T06:06:36;10.23;;;9.23;;
18931;SDS011;9598;50.954;3.112;2023-02-28T06:11:40;9.80;;;8.85;;
18931;SDS011;9598;50.954;3.112;2023-02-28T06:16:43;10.10;;;9.15;;
18931;SDS011;9598;50.954;3.112;2023-02-28T06:21:49;11.05;;;9.40;;
18931;SDS011;9598;50.954;3.112;2023-02-28T06:26:54;11.90;;;10.30;;
18931;SDS011;9598;50.954;3.112;2023-02-28T06:31:56;11.98;;;10.77;;
18931;SDS011;9598;50.954;3.112;2023-02-28T06:36:58;11.93;;;10.40;;
18931;SDS011;9598;50.954;3.112;2023-02-28T06:42:03;12.23;;;9.93;;
18931;SDS011;9598;50.954;3.112;2023-02-28T06:47:06;10.73;;;8.27;;
18931;SDS011;9598;50.954;3.112;2023-02-28T06:52:08;8.73;;;7.60;;
18931;SDS011;9598;50.954;3.112;2023-02-28T06:57:11;9.02;;;8.05;;
18931;SDS011;9598;50.954;3.112;2023-02-28T07:02:13;7.43;;;6.50;;
18931;SDS011;9598;50.954;3.112;2023-02-28T07:07:16;8.10;;;6.22;;
18931;SDS011;9598;50.954;3.112;2023-02-28T07:12:19;8.15;;;7.20;;
18931;SDS011;9598;50.954;3.112;2023-02-28T07:17:21;10.90;;;7.70;;
18931;SDS011;9598;50.954;3.112;2023-02-28T07:22:23;21.20;;;13.80;;
18931;SDS011;9598;50.954;3.112;2023-02-28T07:27:27;16.75;;;12.43;;
18931;SDS011;9598;50.954;3.112;2023-02-28T07:32:29;11.05;;;8.80;;
18931;SDS011;9598;50.954;3.112;2023-02-28T07:37:31;16.38;;;11.25;;
18931;SDS011;9598;50.954;3.112;2023-02-28T07:42:38;18.88;;;12.93;;
18931;SDS011;9598;50.954;3.112;2023-02-28T07:47:41;12.20;;;9.35;;
18931;SDS011;9598;50.954;3.112;2023-02-28T07:52:43;9.63;;;7.85;;
18931;SDS011;9598;50.954;3.112;2023-02-28T07:57:47;12.77;;;9.90;;
18931;SDS011;9598;50.954;3.112;2023-02-28T08:02:49;13.60;;;9.70;;
18931;SDS011;9598;50.954;3.112;2023-02-28T08:07:51;14.68;;;10.48;;
18931;SDS011;9598;50.954;3.112;2023-02-28T08:12:54;11.27;;;8.40;;
18931;SDS011;9598;50.954;3.112;2023-02-28T08:17:57;11.93;;;9.05;;
18931;SDS011;9598;50.954;3.112;2023-02-28T08:23:00;11.38;;;8.75;;
18931;SDS011;9598;50.954;3.112;2023-02-28T08:28:03;8.45;;;6.57;;
18931;SDS011;9598;50.954;3.112;2023-02-28T08:33:05;5.95;;;5.30;;
18931;SDS011;9598;50.954;3.112;2023-02-28T08:38:07;6.07;;;5.05;;
18931;SDS011;9598;50.954;3.112;2023-02-28T08:43:11;11.13;;;8.10;;
18931;SDS011;9598;50.954;3.112;2023-02-28T08:48:13;5.03;;;4.53;;
18931;SDS011;9598;50.954;3.112;2023-02-28T08:53:15;8.90;;;6.95;;
18931;SDS011;9598;50.954;3.112;2023-02-28T08:58:18;5.97;;;3.63;;
18931;SDS011;9598;50.954;3.112;2023-02-28T09:03:21;5.63;;;4.45;;
18931;SDS011;9598;50.954;3.112;2023-02-28T09:08:24;8.18;;;6.05;;
18931;SDS011;9598;50.954;3.112;2023-02-28T09:13:29;6.07;;;4.53;;
18931;SDS011;9598;50.954;3.112;2023-02-28T09:18:33;6.97;;;5.97;;
18931;SDS011;9598;50.954;3.112;2023-02-28T09:23:36;6.05;;;4.80;;
18931;SDS011;9598;50.954;3.112;2023-02-28T09:28:40;6.72;;;4.88;;
18931;SDS011;9598;50.954;3.112;2023-02-28T09:33:43;4.28;;;3.58;;
18931;SDS011;9598;50.954;3.112;2023-02-28T09:38:45;4.65;;;4.22;;
18931;SDS011;9598;50.954;3.112;2023-02-28T09:43:49;5.70;;;3.63;;
18931;SDS011;9598;50.954;3.112;2023-02-28T09:48:55;5.32;;;3.30;;
18931;SDS011;9598;50.954;3.112;2023-02-28T09:53:58;4.43;;;3.50;;
18931;SDS011;9598;50.954;3.112;2023-02-28T09:59:04;3.50;;;3.20;;
18931;SDS011;9598;50.954;3.112;2023-02-28T10:04:13;4.45;;;3.58;;
18931;SDS011;9598;50.954;3.112;2023-02-28T10:09:29;4.32;;;3.88;;
18931;SDS011;9598;50.954;3.112;2023-02-28T10:14:35;5.50;;;3.78;;
18931;SDS011;9598;50.954;3.112;2023-02-28T10:19:41;6.60;;;4.07;;
18931;SDS011;9598;50.954;3.112;2023-02-28T10:24:48;6.13;;;3.47;;
18931;SDS011;9598;50.954;3.112;2023-02-28T10:29:54;5.78;;;4.20;;
18931;SDS011;9598;50.954;3.112;2023-02-28T10:34:59;6.03;;;3.60;;
18931;SDS011;9598;50.954;3.112;2023-02-28T10:40:11;6.15;;;4.20;;
18931;SDS011;9598;50.954;3.112;2023-02-28T10:45:30;4.13;;;3.45;;
18931;SDS011;9598;50.954;3.112;2023-02-28T10:50:37;5.28;;;3.53;;
18931;SDS011;9598;50.954;3.112;2023-02-28T10:55:45;6.13;;;3.90;;
18931;SDS011;9598;50.954;3.112;2023-02-28T11:01:00;4.75;;;4.35;;
18931;SDS011;9598;50.954;3.112;2023-02-28T11:06:05;5.25;;;4.35;;
18931;SDS011;9598;50.954;3.112;2023-02-28T11:11:09;6.10;;;4.32;;
18931;SDS011;9598;50.954;3.112;2023-02-28T11:16:13;5.57;;;4.90;;
18931;SDS011;9598;50.954;3.112;2023-02-28T11:21:21;5.45;;;4.95;;
18931;SDS011;9598;50.954;3.112;2023-02-28T11:26:40;5.53;;;4.40;;
18931;SDS011;9598;50.954;3.112;2023-02-28T11:31:44;6.78;;;4.55;;
18931;SDS011;9598;50.954;3.112;2023-02-28T11:37:05;6.00;;;4.40;;
18931;SDS011;9598;50.954;3.112;2023-02-28T11:42:18;3.67;;;3.38;;
18931;SDS011;9598;50.954;3.112;2023-02-28T11:47:34;6.20;;;4.22;;
18931;SDS011;9598;50.954;3.112;2023-02-28T11:52:45;11.52;;;7.30;;
18931;SDS011;9598;50.954;3.112;2023-02-28T11:57:55;7.05;;;5.57;;
18931;SDS011;9598;50.954;3.112;2023-02-28T12:03:13;4.40;;;4.00;;
18931;SDS011;9598;50.954;3.112;2023-02-28T12:08:25;4.90;;;3.63;;
18931;SDS011;9598;50.954;3.112;2023-02-28T12:13:38;11.05;;;5.03;;
18931;SDS011;9598;50.954;3.112;2023-02-28T12:18:51;4.07;;;3.67;;
18931;SDS011;9598;50.954;3.112;2023-02-28T12:24:06;3.95;;;3.55;;
18931;SDS011;9598;50.954;3.112;2023-02-28T12:29:19;3.83;;;3.40;;
18931;SDS011;9598;50.954;3.112;2023-02-28T12:34:28;3.20;;;2.88;;
18931;SDS011;9598;50.954;3.112;2023-02-28T12:39:35;3.70;;;3.40;;
18931;SDS011;9598;50.954;3.112;2023-02-28T12:44:42;3.83;;;3.00;;
18931;SDS011;9598;50.954;3.112;2023-02-28T12:49:53;2.50;;;2.30;;
18931;SDS011;9598;50.954;3.112;2023-02-28T12:55:00;3.08;;;2.88;;
18931;SDS011;9598;50.954;3.112;2023-02-28T13:00:10;5.30;;;3.60;;
18931;SDS011;9598;50.954;3.112;2023-02-28T13:05:25;4.05;;;3.50;;
18931;SDS011;9598;50.954;3.112;2023-02-28T13:10:57;3.90;;;3.60;;
18931;SDS011;9598;50.954;3.112;2023-02-28T13:16:04;4.90;;;3.70;;
18931;SDS011;9598;50.954;3.112;2023-02-28T13:21:21;5.60;;;3.70;;
18931;SDS011;9598;50.954;3.112;2023-02-28T13:37:43;4.20;;;3.80;;
18931;SDS011;9598;50.954;3.112;2023-02-28T13:42:48;6.78;;;5.63;;
18931;SDS011;9598;50.954;3.112;2023-02-28T13:47:51;4.07;;;3.67;;
18931;SDS011;9598;50.954;3.112;2023-02-28T13:53:05;5.72;;;3.97;;
18931;SDS011;9598;50.954;3.112;2023-02-28T13:58:36;5.38;;;3.58;;
18931;SDS011;9598;50.954;3.112;2023-02-28T14:03:57;4.65;;;3.63;;
18931;SDS011;9598;50.954;3.112;2023-02-28T14:09:23;6.18;;;3.90;;
18931;SDS011;9598;50.954;3.112;2023-02-28T14:19:57;2.85;;;2.65;;
18931;SDS011;9598;50.954;3.112;2023-02-28T14:25:06;2.92;;;2.58;;
18931;SDS011;9598;50.954;3.112;2023-02-28T14:30:25;5.28;;;2.30;;
18931;SDS011;9598;50.954;3.112;2023-02-28T14:35:49;2.97;;;2.50;;
18931;SDS011;9598;50.954;3.112;2023-02-28T14:41:01;2.60;;;2.40;;
18931;SDS011;9598;50.954;3.112;2023-02-28T14:46:07;4.15;;;2.75;;
18931;SDS011;9598;50.954;3.112;2023-02-28T14:51:09;3.35;;;3.00;;
18931;SDS011;9598;50.954;3.112;2023-02-28T14:56:19;3.22;;;2.90;;
18931;SDS011;9598;50.954;3.112;2023-02-28T15:01:23;3.83;;;2.83;;
18931;SDS011;9598;50.954;3.112;2023-02-28T15:06:27;3.45;;;2.80;;
18931;SDS011;9598;50.954;3.112;2023-02-28T15:11:30;4.78;;;3.00;;
18931;SDS011;9598;50.954;3.112;2023-02-28T15:16:33;3.58;;;2.90;;
18931;SDS011;9598;50.954;3.112;2023-02-28T15:21:39;3.67;;;2.97;;
18931;SDS011;9598;50.954;3.112;2023-02-28T15:26:45;3.63;;;2.85;;
18931;SDS011;9598;50.954;3.112;2023-02-28T15:31:55;2.72;;;2.53;;
18931;SDS011;9598;50.954;3.112;2023-02-28T15:36:58;4.38;;;3.45;;
18931;SDS011;9598;50.954;3.112;2023-02-28T15:42:12;3.15;;;2.85;;
18931;SDS011;9598;50.954;3.112;2023-02-28T15:47:19;3.20;;;2.90;;
18931;SDS011;9598;50.954;3.112;2023-02-28T15:52:24;4.80;;;3.03;;
18931;SDS011;9598;50.954;3.112;2023-02-28T15:57:31;2.55;;;2.35;;
18931;SDS011;9598;50.954;3.112;2023-02-28T16:02:34;4.63;;;3.00;;
18931;SDS011;9598;50.954;3.112;2023-02-28T16:07:38;3.80;;;3.30;;
18931;SDS011;9598;50.954;3.112;2023-02-28T16:12:42;3.78;;;3.22;;
18931;SDS011;9598;50.954;3.112;2023-02-28T16:17:44;5.18;;;3.20;;
18931;SDS011;9598;50.954;3.112;2023-02-28T16:22:47;5.45;;;3.60;;
18931;SDS011;9598;50.954;3.112;2023-02-28T16:27:51;3.60;;;3.30;;
18931;SDS011;9598;50.954;3.112;2023-02-28T16:32:55;4.40;;;3.50;;
18931;SDS011;9598;50.954;3.112;2023-02-28T16:37:57;4.32;;;3.92;;
18931;SDS011;9598;50.954;3.112;2023-02-28T16:43:04;4.45;;;3.40;;
18931;SDS011;9598;50.954;3.112;2023-02-28T16:48:08;4.30;;;3.67;;
18931;SDS011;9598;50.954;3.112;2023-02-28T16:53:15;5.22;;;3.80;;
18931;SDS011;9598;50.954;3.112;2023-02-28T16:58:18;5.38;;;4.78;;
18931;SDS011;9598;50.954;3.112;2023-02-28T17:03:22;7.00;;;4.10;;
18931;SDS011;9598;50.954;3.112;2023-02-28T17:08:26;4.78;;;4.28;;
18931;SDS011;9598;50.954;3.112;2023-02-28T17:13:31;6.25;;;4.72;;
18931;SDS011;9598;50.954;3.112;2023-02-28T17:18:34;4.72;;;4.32;;
18931;SDS011;9598;50.954;3.112;2023-02-28T17:23:36;6.45;;;4.72;;
18931;SDS011;9598;50.954;3.112;2023-02-28T17:28:40;5.68;;;5.05;;
18931;SDS011;9598;50.954;3.112;2023-02-28T17:33:42;5.10;;;4.60;;
18931;SDS011;9598;50.954;3.112;2023-02-28T17:38:44;5.55;;;4.78;;
18931;SDS011;9598;50.954;3.112;2023-02-28T17:43:48;6.75;;;5.97;;
18931;SDS011;9598;50.954;3.112;2023-02-28T17:48:52;11.02;;;8.25;;
18931;SDS011;9598;50.954;3.112;2023-02-28T17:53:54;5.97;;;5.38;;
18931;SDS011;9598;50.954;3.112;2023-02-28T17:58:58;7.20;;;5.55;;
18931;SDS011;9598;50.954;3.112;2023-02-28T18:04:01;6.10;;;5.35;;
18931;SDS011;9598;50.954;3.112;2023-02-28T18:09:04;7.57;;;6.30;;
18931;SDS011;9598;50.954;3.112;2023-02-28T18:14:07;7.30;;;6.60;;
18931;SDS011;9598;50.954;3.112;2023-02-28T18:19:09;8.25;;;7.47;;
18931;SDS011;9598;50.954;3.112;2023-02-28T18:24:15;9.50;;;8.60;;
18931;SDS011;9598;50.954;3.112;2023-02-28T18:29:20;12.75;;;8.38;;
18931;SDS011;9598;50.954;3.112;2023-02-28T18:34:24;13.95;;;9.48;;
18931;SDS011;9598;50.954;3.112;2023-02-28T18:39:27;12.18;;;9.52;;
18931;SDS011;9598;50.954;3.112;2023-02-28T18:44:32;12.43;;;9.95;;
18931;SDS011;9598;50.954;3.112;2023-02-28T18:49:34;11.82;;;10.52;;
18931;SDS011;9598;50.954;3.112;2023-02-28T18:54:37;12.43;;;10.02;;
18931;SDS011;9598;50.954;3.112;2023-02-28T18:59:40;12.90;;;10.32;;
18931;SDS011;9598;50.954;3.112;2023-02-28T19:04:43;11.93;;;10.73;;
18931;SDS011;9598;50.954;3.112;2023-02-28T19:09:45;10.13;;;8.65;;
18931;SDS011;9598;50.954;3.112;2023-02-28T19:14:48;9.95;;;8.95;;
18931;SDS011;9598;50.954;3.112;2023-02-28T19:19:51;14.10;;;12.65;;
18931;SDS011;9598;50.954;3.112;2023-02-28T19:24:53;14.27;;;11.00;;
18931;SDS011;9598;50.954;3.112;2023-02-28T19:29:57;15.02;;;10.90;;
18931;SDS011;9598;50.954;3.112;2023-02-28T19:35:00;11.43;;;10.35;;
18931;SDS011;9598;50.954;3.112;2023-02-28T19:40:04;10.68;;;9.68;;
18931;SDS011;9598;50.954;3.112;2023-02-28T19:45:10;12.52;;;11.23;;
18931;SDS011;9598;50.954;3.112;2023-02-28T19:50:14;14.80;;;13.27;;
18931;SDS011;9598;50.954;3.112;2023-02-28T19:55:17;13.63;;;12.15;;
18931;SDS011;9598;50.954;3.112;2023-02-28T20:00:21;13.68;;;11.73;;
18931;SDS011;9598;50.954;3.112;2023-02-28T20:05:23;13.57;;;11.52;;
18931;SDS011;9598;50.954;3.112;2023-02-28T20:10:25;13.25;;;12.00;;
18931;SDS011;9598;50.954;3.112;2023-02-28T20:15:28;12.02;;;10.88;;
18931;SDS011;9598;50.954;3.112;2023-02-28T20:20:31;12.75;;;11.50;;
18931;SDS011;9598;50.954;3.112;2023-02-28T20:25:37;11.43;;;10.13;;
18931;SDS011;9598;50.954;3.112;2023-02-28T20:30:41;10.45;;;9.35;;
18931;SDS011;9598;50.954;3.112;2023-02-28T20:35:45;10.90;;;9.70;;
18931;SDS011;9598;50.954;3.112;2023-02-28T20:40:48;12.20;;;10.63;;
18931;SDS011;9598;50.954;3.112;2023-02-28T20:45:56;10.32;;;9.38;;
18931;SDS011;9598;50.954;3.112;2023-02-28T20:51:02;11.38;;;9.68;;
18931;SDS011;9598;50.954;3.112;2023-02-28T20:56:05;11.25;;;10.20;;
18931;SDS011;9598;50.954;3.112;2023-02-28T21:01:12;11.65;;;10.50;;
18931;SDS011;9598;50.954;3.112;2023-02-28T21:06:17;11.27;;;10.27;;
18931;SDS011;9598;50.954;3.112;2023-02-28T21:11:21;11.38;;;9.95;;
18931;SDS011;9598;50.954;3.112;2023-02-28T21:16:25;11.13;;;9.90;;
18931;SDS011;9598;50.954;3.112;2023-02-28T21:21:29;15.38;;;12.80;;
18931;SDS011;9598;50.954;3.112;2023-02-28T21:26:32;15.00;;;13.13;;
18931;SDS011;9598;50.954;3.112;2023-02-28T21:31:35;12.77;;;11.35;;
18931;SDS011;9598;50.954;3.112;2023-02-28T21:36:38;9.65;;;8.85;;
18931;SDS011;9598;50.954;3.112;2023-02-28T21:41:44;10.32;;;9.02;;
18931;SDS011;9598;50.954;3.112;2023-02-28T21:46:50;11.30;;;9.70;;
18931;SDS011;9598;50.954;3.112;2023-02-28T21:51:54;9.25;;;8.43;;
18931;SDS011;9598;50.954;3.112;2023-02-28T21:56:56;9.55;;;8.65;;
18931;SDS011;9598;50.954;3.112;2023-02-28T22:02:00;10.68;;;9.10;;
18931;SDS011;9598;50.954;3.112;2023-02-28T22:07:04;10.10;;;9.10;;
18931;SDS011;9598;50.954;3.112;2023-02-28T22:12:06;8.73;;;7.93;;
18931;SDS011;9598;50.954;3.112;2023-02-28T22:17:10;9.68;;;8.30;;
18931;SDS011;9598;50.954;3.112;2023-02-28T22:22:12;12.60;;;8.93;;
18931;SDS011;9598;50.954;3.112;2023-02-28T22:27:14;11.15;;;10.02;;
18931;SDS011;9598;50.954;3.112;2023-02-28T22:32:17;10.10;;;9.18;;
18931;SDS011;9598;50.954;3.112;2023-02-28T22:37:20;12.25;;;9.65;;
18931;SDS011;9598;50.954;3.112;2023-02-28T22:42:22;10.75;;;9.45;;
18931;SDS011;9598;50.954;3.112;2023-02-28T22:47:26;10.68;;;9.55;;
18931;SDS011;9598;50.954;3.112;2023-02-28T22:52:28;9.30;;;8.40;;
18931;SDS011;9598;50.954;3.112;2023-02-28T22:57:30;10.07;;;9.07;;
18931;SDS011;9598;50.954;3.112;2023-02-28T23:02:34;8.88;;;8.02;;
18931;SDS011;9598;50.954;3.112;2023-02-28T23:07:36;9.97;;;8.97;;
18931;SDS011;9598;50.954;3.112;2023-02-28T23:12:39;9.48;;;8.45;;
18931;SDS011;9598;50.954;3.112;2023-02-28T23:17:50;11.18;;;9.15;;
18931;SDS011;9598;50.954;3.112;2023-02-28T23:22:52;9.48;;;8.50;;
18931;SDS011;9598;50.954;3.112;2023-02-28T23:27:55;9.40;;;8.43;;
18931;SDS011;9598;50.954;3.112;2023-02-28T23:32:58;9.60;;;8.65;;
18931;SDS011;9598;50.954;3.112;2023-02-28T23:38:01;9.27;;;8.35;;
18931;SDS011;9598;50.954;3.112;2023-02-28T23:43:04;8.43;;;7.07;;
18931;SDS011;9598;50.954;3.112;2023-02-28T23:48:07;8.30;;;7.47;;
18931;SDS011;9598;50.954;3.112;2023-02-28T23:53:09;9.52;;;8.63;;
18931;SDS011;9598;50.954;3.112;2023-02-28T23:58:12;9.50;;;8.60;;
